Kanawha City, West Virginia
Current Conditions -  °F | °C
As of 2:54 AM on Friday 19 Dec 2014 (Local Time) from KCRW Reporting Station
Overcast Overcast  
Wind Chill: 30°   Ceiling: 2300
Heat Index: 30°   Visibility: 10mi
Dew Point: 22°   Wind: 3mph
Humidity: 72%   Direction: NA
Pressure: 30.2"   Gusts: NA
Location:  38.301°N, 81.5932°W
Report Text: KCRW 190754Z VRB03KT 10SM OVC023 M01/M06 A3020 RMK AO2 SNB48E49 SLP236 P0000 T10111056 $
Loading
Personal Weather Stations






























Interactive Weather Map New forecast layout! Learn more

10-Day Weather Forecast

Advertisements
Track Severe Weather on mobile